Pagina principale
METAR-TAF:

METAR-TAF

Aeroporti :

Kaduna, Nigeria

latitudine: 10-36N, longitudine: 007-27E, altezza: 645 m

Osservazione

Il bollettino è stato emesso 4 ore e 40 minuti fa, alle 22:00 UTC
Vento 8 kt da est/nord-est
Temperature 24°C
Umidità 22%
Pressione 1018 hPa
Visibilità: 0800 m
polvere diffusa

METAR: DNKA 232200Z 06008KT 0800 DU NSC 24/01 Q1018

Ora: 03:40 (02:40 UTC)

Previsione

Il bollettino è stato emesso 3 ore e 40 minuti fa, alle 23:00 UTC
Previsione valida dal 24 alle 00 UTC al 25 alle 06 UTC
Vento 10 kt da est/nord-est
Visibilità: 0800 m
polvere diffusa
Probabilità 30%
dal 24 alle 04 UTC al 24 alle 10 UTC
Visibilità: 0500 m
Evoluzione graduale
dal 24 alle 12 UTC al 24 alle 14 UTC
Vento 15 kt da est/sud-est
Visibilità: 3000 m
foschia

TAF: DNKA 232300Z 2400/2506 06010KT 0800 DU NSC PROB30 2404/2410 0500 BECMG 2412/2414 12015KT 3000 HZ

Osservazioni e previsioni meteorologiche di più di 4000 aeroporti (messaggi METAR e TAF).

Le stazioni disponibili sono rappresentate dai dischi gialli e rossi sulla carta.

Puntare il mouse per vedere il nome della stazione.

Clicca sopra per visualizzare le osservazioni e previsioni meteorologiche.

Per cambiare la mappa : fare clic sui pulsanti verdi con una croce nera per ingrandire, il pulsante verde con un trattino per diminuire, o sulla freccia verde per le mappe adiacenti.


METAR-TAF: